Time;durP1;ratioP1;P1;durP2;ratioP2;P2;SDS_P1;SDS_P2;PMS_P1;PMS_P2;Temp;Humidity;BMP_temperature;BMP_pressure;BME280_temperature;BME280_humidity;BME280_pressure;Samples;Min_cycle;Max_cycle;Signal;HPM_P1;HPM_P2
2021/12/20 00:01:51;;;;;;;;;;;2.20;99.90;;;;;;5034218;28;19909;-64
2021/12/20 00:04:17;;;;;;;;;;;;;;;;;;5034191;28;19936;-64
2021/12/20 00:06:42;;;;;;;;;;;1.90;99.90;;;;;;5034107;28;19909;-64
2021/12/20 00:09:08;;;;;;;;;;;;;;;;;;5033468;28;19932;-64
2021/12/20 00:11:34;;;;;;;;;;;2.80;99.90;;;;;;5033686;28;20000;-64
2021/12/20 00:13:59;;;;;;;;;;;;;;;;;;5033962;28;19909;-62
2021/12/20 00:16:25;;;;;;;;;;;2.60;99.90;;;;;;5033920;28;20267;-64
2021/12/20 00:18:51;;;;;;;;;;;3.10;99.90;;;;;;5015756;28;19905;-64
2021/12/20 00:21:17;;;;;;;;;;;3.20;99.90;;;;;;5033463;28;20007;-64
2021/12/20 00:23:43;;;;;;;;;;;3.40;99.90;;;;;;5033658;28;20012;-63
2021/12/20 00:26:09;;;;;;;;;;;;;;;;;;5033385;28;19909;-64
2021/12/20 00:28:35;;;;;;;;;;;3.00;99.90;;;;;;5033550;28;19980;-64
2021/12/20 00:31:00;;;;;;;;;;;2.00;99.90;;;;;;5033551;28;19905;-64
2021/12/20 00:33:28;;;;;;;;;;;3.60;99.90;;;;;;5033204;28;19916;-64
2021/12/20 00:35:54;;;;;;;;;;;2.00;99.90;;;;;;5033695;28;20256;-64
2021/12/20 00:41:03;;;;;;;;;;;2.80;99.90;;;;;;5032871;28;20283;-64
2021/12/20 00:43:29;;;;;;;;;;;2.00;99.90;;;;;;5024369;28;19917;-64
2021/12/20 00:45:55;;;;;;;;;;;2.00;99.90;;;;;;5025008;28;19912;-63
2021/12/20 00:48:20;;;;;;;;;;;1.90;99.90;;;;;;5028320;28;19914;-64
2021/12/20 00:50:46;;;;;;;;;;;2.90;99.90;;;;;;5013255;28;19912;-64
2021/12/20 00:53:12;;;;;;;;;;;2.00;99.90;;;;;;5023750;28;19908;-65
2021/12/20 00:55:38;;;;;;;;;;;1.90;99.90;;;;;;5033103;28;20291;-64
2021/12/20 00:58:03;;;;;;;;;;;2.40;99.90;;;;;;5015324;28;20007;-63
2021/12/20 01:00:30;;;;;;;;;;;1.60;99.90;;;;;;5031991;28;19952;-64
2021/12/20 01:02:57;;;;;;;;;;;1.80;99.90;;;;;;5033065;28;20299;-64
2021/12/20 01:05:23;;;;;;;;;;;2.00;99.90;;;;;;5032868;28;20294;-64
2021/12/20 01:07:48;;;;;;;;;;;2.40;99.90;;;;;;5033020;28;20295;-63
2021/12/20 01:10:15;;;;;;;;;;;2.50;99.90;;;;;;5032321;28;19959;-64
2021/12/20 01:12:47;;;;;;;;;;;2.70;99.90;;;;;;5033037;28;20364;-64
2021/12/20 01:15:51;;;;;;;;;;;3.80;99.90;;;;;;5032913;28;19936;-64
2021/12/20 01:18:17;;;;;;;;;;;2.80;99.90;;;;;;4982420;28;19909;-64
2021/12/20 01:20:43;;;;;;;;;;;2.00;99.90;;;;;;5032567;28;19909;-64
2021/12/20 01:23:09;;;;;;;;;;;1.90;99.90;;;;;;5032721;28;19991;-64
2021/12/20 01:25:35;;;;;;;;;;;0.90;99.90;;;;;;5032375;28;20000;-64
2021/12/20 01:28:01;;;;;;;;;;;2.90;99.90;;;;;;5032602;28;20429;-63
2021/12/20 01:30:27;;;;;;;;;;;2.60;99.90;;;;;;5031859;28;19959;-64
2021/12/20 01:32:53;;;;;;;;;;;2.50;99.90;;;;;;5032626;28;19916;-63
2021/12/20 01:35:19;;;;;;;;;;;2.20;99.90;;;;;;5030343;28;20271;-63
2021/12/20 01:37:44;;;;;;;;;;;2.60;99.90;;;;;;5031650;28;20432;-64
2021/12/20 01:40:10;;;;;;;;;;;;;;;;;;5031553;28;19909;-63
2021/12/20 01:42:36;;;;;;;;;;;;;;;;;;5032330;28;19952;-63
2021/12/20 01:45:09;;;;;;;;;;;3.00;99.90;;;;;;5073468;22;19921;-69
2021/12/20 01:47:37;;;;;;;;;;;3.60;99.90;;;;;;5047571;28;19912;-68
2021/12/20 01:50:15;;;;;;;;;;;;;;;;;;5051939;28;19951;-67
2021/12/20 01:52:43;;;;;;;;;;;;;;;;;;5052371;28;20362;-68
2021/12/20 01:55:10;;;;;;;;;;;4.80;99.90;;;;;;5052002;28;20454;-69
2021/12/20 01:57:36;;;;;;;;;;;3.00;99.90;;;;;;5052137;28;19909;-68
2021/12/20 02:00:06;;;;;;;;;;;2.10;99.90;;;;;;5051313;28;19905;-67
2021/12/20 02:02:32;;;;;;;;;;;2.00;99.90;;;;;;5052207;28;19970;-68
2021/12/20 02:05:06;;;;;;;;;;;2.90;99.90;;;;;;5051925;28;20267;-68
2021/12/20 02:07:49;;;;;;;;;;;1.60;99.90;;;;;;5051974;28;19909;-69
2021/12/20 02:10:15;;;;;;;;;;;3.00;99.90;;;;;;5051476;28;19970;-68
2021/12/20 02:12:40;;;;;;;;;;;2.50;99.90;;;;;;5052032;28;19908;-67
2021/12/20 02:15:06;;;;;;;;;;;3.90;99.90;;;;;;5052016;28;19913;-68
2021/12/20 02:17:32;;;;;;;;;;;3.30;99.90;;;;;;5052036;28;20281;-68
2021/12/20 02:19:58;;;;;;;;;;;2.30;99.90;;;;;;5051292;28;19905;-69
2021/12/20 02:22:24;;;;;;;;;;;3.40;99.90;;;;;;5053306;28;19935;-67
2021/12/20 02:24:49;;;;;;;;;;;2.90;99.90;;;;;;5053482;28;19916;-68
2021/12/20 02:27:16;;;;;;;;;;;2.40;99.90;;;;;;5034154;28;19978;-68
2021/12/20 02:29:59;;;;;;;;;;;2.40;99.90;;;;;;5050840;28;19951;-68
2021/12/20 02:38:07;;;;;;;;;;;2.20;99.90;;;;;;5051609;28;19912;-69
2021/12/20 02:40:32;;;;;;;;;;;3.00;99.90;;;;;;5051746;28;20270;-67
2021/12/20 02:42:58;;;;;;;;;;;3.30;99.90;;;;;;5051866;28;19916;-68
2021/12/20 02:45:30;;;;;;;;;;;2.50;99.90;;;;;;5051130;28;19924;-67
2021/12/20 02:47:55;;;;;;;;;;;1.90;99.90;;;;;;5051499;28;19919;-69
2021/12/20 02:50:21;;;;;;;;;;;2.70;99.90;;;;;;5051167;28;20359;-67
2021/12/20 02:52:46;;;;;;;;;;;1.80;99.90;;;;;;5051657;28;19995;-66
2021/12/20 02:55:12;;;;;;;;;;;2.10;99.90;;;;;;5051883;28;19913;-69
2021/12/20 02:57:38;;;;;;;;;;;3.20;99.90;;;;;;5052845;28;20377;-67
2021/12/20 03:00:05;;;;;;;;;;;2.80;99.90;;;;;;5054404;28;19947;-67
2021/12/20 03:02:31;;;;;;;;;;;;;;;;;;5055737;28;19905;-67
2021/12/20 03:04:57;;;;;;;;;;;;;;;;;;5055568;28;19915;-67
2021/12/20 03:07:26;;;;;;;;;;;;;;;;;;5055712;28;20255;-67
2021/12/20 03:09:56;;;;;;;;;;;3.40;99.90;;;;;;5054753;28;20330;-67
2021/12/20 03:12:25;;;;;;;;;;;2.10;99.90;;;;;;5054884;28;19954;-67
2021/12/20 03:14:55;;;;;;;;;;;2.10;99.90;;;;;;5054073;28;20038;-68
2021/12/20 03:17:20;;;;;;;;;;;1.90;99.90;;;;;;5055545;28;20007;-68
2021/12/20 03:19:46;;;;;;;;;;;2.50;99.90;;;;;;5054903;28;19919;-67
2021/12/20 03:22:11;;;;;;;;;;;2.10;99.90;;;;;;5055931;28;19905;-68
2021/12/20 03:24:37;;;;;;;;;;;1.60;99.90;;;;;;5055443;28;19909;-68
2021/12/20 03:27:03;;;;;;;;;;;2.50;99.90;;;;;;5055606;28;20363;-67
2021/12/20 03:29:29;;;;;;;;;;;2.00;99.90;;;;;;5054142;28;19912;-68
2021/12/20 03:31:54;;;;;;;;;;;2.50;99.90;;;;;;5055303;28;19909;-67
2021/12/20 03:34:20;;;;;;;;;;;;;;;;;;5055606;28;20003;-67
2021/12/20 03:36:46;;;;;;;;;;;3.20;99.90;;;;;;5055751;28;19905;-68
2021/12/20 03:39:11;;;;;;;;;;;2.50;99.90;;;;;;5054855;28;19905;-68
2021/12/20 03:41:37;;;;;;;;;;;2.80;99.90;;;;;;5055274;28;19940;-68
2021/12/20 03:44:03;;;;;;;;;;;3.40;99.90;;;;;;5054616;28;19999;-67
2021/12/20 03:46:29;;;;;;;;;;;3.30;99.90;;;;;;5055715;28;20321;-67
2021/12/20 03:48:54;;;;;;;;;;;2.40;99.90;;;;;;5043799;28;19908;-67
2021/12/20 03:51:20;;;;;;;;;;;2.30;99.90;;;;;;5069197;28;19941;-67
2021/12/20 03:53:45;;;;;;;;;;;2.90;99.90;;;;;;5069890;28;19984;-68
2021/12/20 03:56:11;;;;;;;;;;;1.80;99.90;;;;;;5065827;28;19950;-67
2021/12/20 03:58:37;;;;;;;;;;;3.00;99.90;;;;;;5060061;28;19920;-67
2021/12/20 04:01:04;;;;;;;;;;;3.20;99.90;;;;;;5060434;28;19905;-67
2021/12/20 04:03:33;;;;;;;;;;;3.70;99.90;;;;;;5039365;28;19960;-66
2021/12/20 04:05:58;;;;;;;;;;;2.00;99.90;;;;;;5056035;28;19905;-65
2021/12/20 04:08:24;;;;;;;;;;;1.80;99.90;;;;;;5057618;28;20347;-67
2021/12/20 04:10:50;;;;;;;;;;;3.10;99.90;;;;;;5059874;28;19908;-67
2021/12/20 04:13:15;;;;;;;;;;;2.90;99.90;;;;;;5059347;28;20931;-67
2021/12/20 04:15:41;;;;;;;;;;;2.90;99.90;;;;;;5054264;28;19909;-67
2021/12/20 04:18:07;;;;;;;;;;;3.20;99.90;;;;;;5055091;28;19905;-68
2021/12/20 04:20:32;;;;;;;;;;;3.00;99.90;;;;;;5054041;28;19947;-66
2021/12/20 04:22:58;;;;;;;;;;;3.90;99.90;;;;;;5054175;28;19904;-68
2021/12/20 04:25:23;;;;;;;;;;;2.30;99.90;;;;;;5053724;28;19965;-66
2021/12/20 04:27:49;;;;;;;;;;;2.00;99.90;;;;;;5053910;28;19916;-66
2021/12/20 04:30:15;;;;;;;;;;;3.40;99.90;;;;;;5053317;28;19998;-67
2021/12/20 04:32:41;;;;;;;;;;;;;;;;;;5053852;28;19967;-66
2021/12/20 04:35:07;;;;;;;;;;;4.60;99.90;;;;;;5053932;28;20359;-66
2021/12/20 04:37:33;;;;;;;;;;;2.90;99.90;;;;;;5053985;28;19905;-67
2021/12/20 04:39:59;;;;;;;;;;;2.80;99.90;;;;;;5052811;28;20465;-68
2021/12/20 04:42:25;;;;;;;;;;;3.00;99.90;;;;;;5052972;28;19915;-67
2021/12/20 04:44:51;;;;;;;;;;;1.90;99.90;;;;;;5035042;28;20290;-67
2021/12/20 04:47:16;;;;;;;;;;;2.60;99.90;;;;;;5053404;28;19916;-68
2021/12/20 04:49:41;;;;;;;;;;;3.50;99.90;;;;;;5052825;28;19908;-66
2021/12/20 04:52:07;;;;;;;;;;;3.40;99.90;;;;;;5056408;28;19916;-66
2021/12/20 04:54:33;;;;;;;;;;;3.10;99.90;;;;;;5037261;28;20004;-67
2021/12/20 04:56:58;;;;;;;;;;;2.30;99.90;;;;;;5052974;28;19913;-68
2021/12/20 04:59:24;;;;;;;;;;;2.90;99.90;;;;;;5052507;28;19905;-67
2021/12/20 05:01:49;;;;;;;;;;;3.40;99.90;;;;;;5034231;28;19917;-66
2021/12/20 05:04:15;;;;;;;;;;;3.60;99.90;;;;;;5045213;28;19913;-67
2021/12/20 05:06:41;;;;;;;;;;;;;;;;;;5052850;28;19952;-67
2021/12/20 05:09:06;;;;;;;;;;;3.20;99.90;;;;;;5052137;28;19955;-66
2021/12/20 05:11:34;;;;;;;;;;;3.10;99.90;;;;;;5053056;28;19909;-67
2021/12/20 05:14:00;;;;;;;;;;;2.30;99.90;;;;;;5052652;28;19915;-67
2021/12/20 05:16:26;;;;;;;;;;;2.50;99.90;;;;;;5052898;28;19908;-66
2021/12/20 05:18:51;;;;;;;;;;;2.80;99.90;;;;;;5053046;28;20353;-66
2021/12/20 05:21:17;;;;;;;;;;;2.80;99.90;;;;;;5052536;28;19905;-65
2021/12/20 05:23:43;;;;;;;;;;;;;;;;;;5052715;28;19913;-66
2021/12/20 05:26:08;;;;;;;;;;;2.20;99.90;;;;;;5052943;28;19909;-68
2021/12/20 05:28:34;;;;;;;;;;;;;;;;;;5051364;28;20366;-71
2021/12/20 05:30:59;;;;;;;;;;;2.50;99.90;;;;;;5041519;28;19966;-72
2021/12/20 05:33:26;;;;;;;;;;;3.00;99.90;;;;;;5050114;28;19911;-71
2021/12/20 05:35:52;;;;;;;;;;;3.90;99.90;;;;;;5046118;28;19913;-71
2021/12/20 05:38:17;;;;;;;;;;;2.00;99.90;;;;;;5052217;28;19915;-72
2021/12/20 05:40:43;;;;;;;;;;;2.10;99.90;;;;;;5051989;28;19909;-72
2021/12/20 05:43:08;;;;;;;;;;;2.80;99.90;;;;;;5049405;28;19916;-72
2021/12/20 05:45:34;;;;;;;;;;;2.00;99.90;;;;;;5051458;28;20026;-72
2021/12/20 05:48:00;;;;;;;;;;;2.60;99.90;;;;;;5052327;28;19959;-74
2021/12/20 05:50:26;;;;;;;;;;;2.80;99.90;;;;;;5051892;28;19908;-74
2021/12/20 05:52:51;;;;;;;;;;;2.30;99.90;;;;;;5050924;28;19911;-71
2021/12/20 05:55:17;;;;;;;;;;;2.60;99.90;;;;;;5052096;28;19920;-71
2021/12/20 05:57:43;;;;;;;;;;;2.60;99.90;;;;;;5052084;28;19999;-70
2021/12/20 06:00:12;;;;;;;;;;;3.10;99.90;;;;;;5033040;28;20370;-72
2021/12/20 06:02:38;;;;;;;;;;;2.70;99.90;;;;;;5043958;28;19916;-71
2021/12/20 06:05:04;;;;;;;;;;;2.80;99.90;;;;;;5038092;28;19913;-71
2021/12/20 06:07:29;;;;;;;;;;;2.80;99.90;;;;;;5032073;28;19909;-71
2021/12/20 06:09:55;;;;;;;;;;;3.20;99.90;;;;;;5031572;28;20009;-72
2021/12/20 06:12:20;;;;;;;;;;;3.00;99.90;;;;;;5039581;28;20359;-72
2021/12/20 06:14:46;;;;;;;;;;;3.10;99.90;;;;;;5051899;28;19905;-71
2021/12/20 06:17:11;;;;;;;;;;;2.50;99.90;;;;;;5051713;28;19974;-71
2021/12/20 06:19:37;;;;;;;;;;;4.30;99.90;;;;;;5051482;28;19913;-70
2021/12/20 06:22:04;;;;;;;;;;;2.80;99.90;;;;;;5051884;28;19908;-72
2021/12/20 06:24:30;;;;;;;;;;;2.70;99.90;;;;;;5051852;28;19925;-71
2021/12/20 06:26:55;;;;;;;;;;;2.70;99.90;;;;;;5052202;28;20394;-73
2021/12/20 06:29:21;;;;;;;;;;;2.90;99.90;;;;;;5050860;28;19920;-72
2021/12/20 06:31:46;;;;;;;;;;;2.70;99.90;;;;;;5051956;28;19913;-73
2021/12/20 06:34:12;;;;;;;;;;;3.00;99.90;;;;;;5055923;28;20359;-73
2021/12/20 06:36:37;;;;;;;;;;;2.70;99.90;;;;;;5055757;28;19954;-78
2021/12/20 06:39:04;;;;;;;;;;;3.00;99.90;;;;;;5055616;28;19909;-74
2021/12/20 06:41:29;;;;;;;;;;;3.00;99.90;;;;;;5055793;28;19947;-74
2021/12/20 06:43:55;;;;;;;;;;;2.80;99.90;;;;;;5037641;28;19956;-71
2021/12/20 06:46:21;;;;;;;;;;;3.10;99.90;;;;;;5054625;28;20371;-71
2021/12/20 06:48:47;;;;;;;;;;;2.80;99.90;;;;;;5055208;28;19996;-71
2021/12/20 06:51:12;;;;;;;;;;;3.10;99.90;;;;;;5055053;28;20455;-72
2021/12/20 06:53:38;;;;;;;;;;;;;;;;;;5055654;28;19967;-73
2021/12/20 06:56:04;;;;;;;;;;;3.20;99.90;;;;;;5037521;28;19905;-73
2021/12/20 06:58:29;;;;;;;;;;;3.40;99.90;;;;;;5055382;28;19915;-75
2021/12/20 07:00:55;;;;;;;;;;;2.30;99.90;;;;;;5054831;28;20282;-74
2021/12/20 07:03:21;;;;;;;;;;;3.10;99.90;;;;;;5055160;28;19909;-74
2021/12/20 07:05:47;;;;;;;;;;;2.30;99.90;;;;;;5055184;28;19958;-75
2021/12/20 07:08:13;;;;;;;;;;;2.80;99.90;;;;;;5055127;28;19912;-75
2021/12/20 07:10:38;;;;;;;;;;;;;;;;;;5054942;28;19914;-74
2021/12/20 07:13:04;;;;;;;;;;;2.80;99.90;;;;;;5055219;28;19911;-74
2021/12/20 07:15:31;;;;;;;;;;;2.90;99.90;;;;;;5054867;28;19957;-74
2021/12/20 07:17:57;;;;;;;;;;;2.90;99.90;;;;;;5055124;28;19909;-71
2021/12/20 07:20:23;;;;;;;;;;;3.20;99.90;;;;;;5054532;28;20380;-70
2021/12/20 07:22:49;;;;;;;;;;;3.50;99.90;;;;;;5054722;28;19944;-74
2021/12/20 07:25:14;;;;;;;;;;;3.30;99.90;;;;;;5054787;28;19951;-73
2021/12/20 07:27:40;;;;;;;;;;;3.00;99.90;;;;;;5055252;28;19909;-74
2021/12/20 07:30:06;;;;;;;;;;;2.80;99.90;;;;;;5055264;28;19913;-74
2021/12/20 07:32:31;;;;;;;;;;;3.10;99.90;;;;;;5037912;28;19908;-74
2021/12/20 07:34:57;;;;;;;;;;;3.60;99.90;;;;;;5055084;28;20340;-74
2021/12/20 07:37:25;;;;;;;;;;;2.80;99.90;;;;;;5056404;28;20000;-74
2021/12/20 07:39:51;;;;;;;;;;;2.50;99.90;;;;;;5053828;28;20389;-74
2021/12/20 07:42:16;;;;;;;;;;;2.70;99.90;;;;;;5053077;28;19909;-74
2021/12/20 07:44:42;;;;;;;;;;;4.70;99.90;;;;;;5068398;22;19908;-70
2021/12/20 07:47:08;;;;;;;;;;;2.80;99.90;;;;;;5044755;28;19913;-70
2021/12/20 07:49:34;;;;;;;;;;;2.20;99.90;;;;;;5031412;28;19955;-65
2021/12/20 07:52:00;;;;;;;;;;;2.90;99.90;;;;;;5037976;28;19920;-64
2021/12/20 07:54:26;;;;;;;;;;;3.30;99.90;;;;;;5054156;28;19909;-64
2021/12/20 07:56:51;;;;;;;;;;;2.90;99.90;;;;;;5053606;28;20433;-66
2021/12/20 07:59:17;;;;;;;;;;;3.10;99.90;;;;;;5053509;28;19909;-64
2021/12/20 08:01:42;;;;;;;;;;;3.20;99.90;;;;;;5053650;28;19994;-64
2021/12/20 08:04:08;;;;;;;;;;;3.50;99.90;;;;;;5053592;28;20397;-64
2021/12/20 08:06:34;;;;;;;;;;;2.90;99.90;;;;;;5053824;28;19954;-64
2021/12/20 08:08:59;;;;;;;;;;;3.00;99.90;;;;;;5052428;28;19908;-64
2021/12/20 08:11:25;;;;;;;;;;;2.50;99.90;;;;;;5053805;28;20320;-64
2021/12/20 08:13:50;;;;;;;;;;;3.20;99.90;;;;;;5035999;28;20370;-64
2021/12/20 08:16:16;;;;;;;;;;;3.50;99.90;;;;;;5053322;28;19962;-64
2021/12/20 08:18:43;;;;;;;;;;;2.90;99.90;;;;;;5053298;28;19908;-64
2021/12/20 08:21:09;;;;;;;;;;;2.70;99.90;;;;;;5053182;28;19913;-65
2021/12/20 08:23:34;;;;;;;;;;;3.70;99.90;;;;;;5035690;28;20333;-64
2021/12/20 08:26:00;;;;;;;;;;;4.00;99.90;;;;;;5053416;28;19963;-64
2021/12/20 08:28:27;;;;;;;;;;;2.90;99.90;;;;;;5053351;28;19909;-65
2021/12/20 08:30:52;;;;;;;;;;;2.90;99.90;;;;;;5053205;28;19909;-65
2021/12/20 08:33:18;;;;;;;;;;;3.50;99.90;;;;;;5053215;28;19966;-65
2021/12/20 08:35:44;;;;;;;;;;;3.50;99.90;;;;;;5052997;28;19978;-66
2021/12/20 08:38:09;;;;;;;;;;;3.20;99.90;;;;;;5053158;28;19912;-65
2021/12/20 08:40:35;;;;;;;;;;;3.40;99.90;;;;;;5052937;28;19909;-65
2021/12/20 08:43:01;;;;;;;;;;;3.40;99.90;;;;;;5053349;28;19908;-65
2021/12/20 08:45:27;;;;;;;;;;;2.60;99.90;;;;;;5052686;28;20371;-65
2021/12/20 08:47:52;;;;;;;;;;;4.00;99.90;;;;;;5052930;28;19909;-65
2021/12/20 08:50:23;;;;;;;;;;;3.30;99.90;;;;;;5052559;28;20065;-65
2021/12/20 08:52:48;;;;;;;;;;;3.50;99.90;;;;;;5052348;28;19909;-65
2021/12/20 08:55:14;;;;;;;;;;;3.00;99.90;;;;;;5052509;28;19915;-65
2021/12/20 08:57:40;;;;;;;;;;;4.10;99.90;;;;;;5052932;28;20483;-65
2021/12/20 09:00:09;;;;;;;;;;;3.60;99.90;;;;;;5051980;28;20010;-65
2021/12/20 09:02:35;;;;;;;;;;;4.70;99.90;;;;;;5052720;28;19916;-65
2021/12/20 09:05:00;;;;;;;;;;;2.80;99.90;;;;;;5052667;28;19909;-65
2021/12/20 09:07:27;;;;;;;;;;;3.30;99.90;;;;;;5052791;28;19928;-65
2021/12/20 09:09:52;;;;;;;;;;;3.30;99.90;;;;;;5050069;28;19948;-64
2021/12/20 09:12:18;;;;;;;;;;;4.50;99.90;;;;;;5052684;28;19944;-64
2021/12/20 09:14:45;;;;;;;;;;;3.60;99.90;;;;;;5052901;28;19905;-64
2021/12/20 09:17:10;;;;;;;;;;;3.20;99.90;;;;;;5052324;28;19912;-64
2021/12/20 09:19:36;;;;;;;;;;;3.70;99.90;;;;;;5052115;28;20363;-65
2021/12/20 09:22:05;;;;;;;;;;;4.80;99.90;;;;;;5033963;28;19927;-64
2021/12/20 09:24:31;;;;;;;;;;;4.00;99.90;;;;;;5052362;28;20310;-65
2021/12/20 09:26:57;;;;;;;;;;;3.90;99.90;;;;;;5052669;28;19912;-65
2021/12/20 09:29:22;;;;;;;;;;;3.40;99.90;;;;;;5051859;28;19912;-65
2021/12/20 09:31:48;;;;;;;;;;;3.90;99.90;;;;;;5052349;28;19912;-66
2021/12/20 09:34:13;;;;;;;;;;;4.00;99.90;;;;;;5052485;28;19995;-65
2021/12/20 09:36:39;;;;;;;;;;;3.50;99.90;;;;;;5052138;28;19926;-65
2021/12/20 09:39:10;;;;;;;;;;;3.90;99.90;;;;;;5051754;28;19915;-67
2021/12/20 09:44:07;;;;;;;;;;;3.90;99.90;;;;;;5052115;28;19912;-64
2021/12/20 09:46:33;;;;;;;;;;;4.00;99.90;;;;;;5051746;28;19916;-66
2021/12/20 09:48:59;;;;;;;;;;;3.70;99.90;;;;;;5051530;28;19912;-64
2021/12/20 09:51:25;;;;;;;;;;;3.20;99.90;;;;;;5052143;28;20310;-65
2021/12/20 09:53:51;;;;;;;;;;;3.50;99.90;;;;;;5052342;28;19944;-65
2021/12/20 09:56:19;;;;;;;;;;;4.30;99.90;;;;;;5051916;28;20009;-64
2021/12/20 09:58:46;;;;;;;;;;;3.60;99.90;;;;;;5051904;28;19909;-64
2021/12/20 10:01:15;;;;;;;;;;;4.60;99.90;;;;;;5051590;28;19947;-65
2021/12/20 10:03:42;;;;;;;;;;;3.80;99.90;;;;;;5052003;28;19916;-65
2021/12/20 10:06:08;;;;;;;;;;;4.20;99.90;;;;;;5051870;28;20248;-65
2021/12/20 10:08:35;;;;;;;;;;;4.30;99.90;;;;;;5051727;28;19927;-65
2021/12/20 10:11:06;;;;;;;;;;;3.10;99.90;;;;;;5051573;28;19963;-66
2021/12/20 10:13:36;;;;;;;;;;;3.90;99.90;;;;;;5051887;28;19963;-64
2021/12/20 10:16:03;;;;;;;;;;;3.80;99.90;;;;;;5051757;28;19912;-65
2021/12/20 10:18:32;;;;;;;;;;;3.40;99.90;;;;;;5051659;28;19931;-65
2021/12/20 10:20:58;;;;;;;;;;;4.40;99.90;;;;;;5034147;28;19955;-65
2021/12/20 10:23:25;;;;;;;;;;;4.30;99.90;;;;;;5052064;28;19931;-65
2021/12/20 10:25:59;;;;;;;;;;;4.60;99.90;;;;;;5051401;28;20003;-64
2021/12/20 10:28:26;;;;;;;;;;;4.20;99.90;;;;;;5051877;28;19911;-66
2021/12/20 10:30:55;;;;;;;;;;;4.80;99.90;;;;;;5051222;28;19908;-66
2021/12/20 10:33:22;;;;;;;;;;;4.60;99.90;;;;;;5051805;28;19936;-64
2021/12/20 10:35:59;;;;;;;;;;;4.10;99.90;;;;;;5051660;28;19932;-65
2021/12/20 10:38:37;;;;;;;;;;;4.60;99.90;;;;;;5051155;28;19951;-65
2021/12/20 10:41:03;;;;;;;;;;;5.10;99.90;;;;;;5051087;28;20343;-64
2021/12/20 10:43:37;;;;;;;;;;;5.00;99.90;;;;;;5051708;28;19943;-64
2021/12/20 10:46:10;;;;;;;;;;;5.00;99.90;;;;;;5050986;28;19999;-64
2021/12/20 10:48:35;;;;;;;;;;;5.50;99.90;;;;;;5051463;28;19919;-64
2021/12/20 10:51:01;;;;;;;;;;;5.20;99.90;;;;;;5051077;28;19912;-64
2021/12/20 10:53:27;;;;;;;;;;;5.50;99.90;;;;;;5051542;28;19937;-64
2021/12/20 10:55:58;;;;;;;;;;;5.80;99.90;;;;;;5051041;28;19905;-64
2021/12/20 10:58:29;;;;;;;;;;;5.10;99.90;;;;;;5050618;28;19905;-63
2021/12/20 11:01:20;;;;;;;;;;;6.00;99.90;;;;;;5050665;28;19916;-64
2021/12/20 11:04:00;;;;;;;;;;;5.40;99.90;;;;;;5051227;28;20354;-64
2021/12/20 11:06:26;;;;;;;;;;;5.30;99.90;;;;;;5051424;28;19923;-64
2021/12/20 11:09:04;;;;;;;;;;;5.10;99.90;;;;;;5051264;28;19978;-64
2021/12/20 11:11:31;;;;;;;;;;;5.90;99.90;;;;;;5051315;28;19909;-64
2021/12/20 11:14:01;;;;;;;;;;;5.60;99.90;;;;;;5051425;28;19912;-65
2021/12/20 11:16:27;;;;;;;;;;;6.70;99.90;;;;;;5051656;28;19954;-65
2021/12/20 11:19:09;;;;;;;;;;;6.10;99.90;;;;;;5053757;28;19914;-64
2021/12/20 11:21:35;;;;;;;;;;;6.40;99.90;;;;;;5055024;28;20430;-63
2021/12/20 11:24:02;;;;;;;;;;;6.20;99.90;;;;;;5045310;28;20374;-69
2021/12/20 11:26:27;;;;;;;;;;;6.20;99.90;;;;;;5042570;28;20282;-69
2021/12/20 11:28:54;;;;;;;;;;;6.60;99.90;;;;;;5047296;28;19912;-70
2021/12/20 11:31:20;;;;;;;;;;;6.10;99.90;;;;;;5052552;28;19916;-69
2021/12/20 11:33:45;;;;;;;;;;;5.00;99.90;;;;;;5055133;28;19964;-70
2021/12/20 11:36:11;;;;;;;;;;;5.50;99.90;;;;;;5056163;28;19920;-69
2021/12/20 11:38:37;;;;;;;;;;;5.80;99.90;;;;;;5049241;28;19905;-68
2021/12/20 11:41:03;;;;;;;;;;;5.80;99.90;;;;;;5039732;28;19976;-69
2021/12/20 11:43:29;;;;;;;;;;;6.00;99.90;;;;;;5039318;28;20367;-68
2021/12/20 11:45:56;;;;;;;;;;;5.80;99.90;;;;;;5053489;28;19948;-70
2021/12/20 11:48:23;;;;;;;;;;;5.60;99.90;;;;;;5064504;28;19909;-69
2021/12/20 11:50:54;;;;;;;;;;;6.50;99.90;;;;;;5057240;28;19908;-69
2021/12/20 11:53:20;;;;;;;;;;;6.40;99.90;;;;;;5056034;28;19908;-69
2021/12/20 11:55:52;;;;;;;;;;;6.10;99.90;;;;;;5054548;28;19912;-69
2021/12/20 11:58:23;;;;;;;;;;;7.00;99.90;;;;;;5054739;28;19920;-69
2021/12/20 12:00:50;;;;;;;;;;;6.50;99.90;;;;;;5054583;28;19909;-69
2021/12/20 12:03:15;;;;;;;;;;;6.60;99.90;;;;;;5059202;28;19975;-69
2021/12/20 12:05:47;;;;;;;;;;;6.80;99.90;;;;;;5066477;28;19931;-69
2021/12/20 12:08:25;;;;;;;;;;;7.30;99.90;;;;;;5060102;28;19916;-69
2021/12/20 12:10:52;;;;;;;;;;;7.20;99.90;;;;;;5054644;28;20346;-69
2021/12/20 12:13:18;;;;;;;;;;;8.20;99.90;;;;;;5054462;28;19905;-69
2021/12/20 12:16:05;;;;;;;;;;;9.00;99.90;;;;;;5054068;28;19979;-68
2021/12/20 12:18:45;;;;;;;;;;;10.10;99.90;;;;;;5053762;28;19920;-70
2021/12/20 12:21:29;;;;;;;;;;;9.10;99.90;;;;;;5054703;28;19904;-70
2021/12/20 12:23:55;;;;;;;;;;;8.60;99.90;;;;;;5051634;28;19909;-69
2021/12/20 12:26:30;;;;;;;;;;;9.70;99.90;;;;;;5053705;28;19908;-69
2021/12/20 12:28:56;;;;;;;;;;;9.90;99.90;;;;;;5025273;28;20007;-70
2021/12/20 12:31:22;;;;;;;;;;;8.80;99.90;;;;;;5052477;28;20047;-70
2021/12/20 12:34:04;;;;;;;;;;;9.20;99.90;;;;;;5043183;28;19908;-71
2021/12/20 12:36:38;;;;;;;;;;;8.00;99.90;;;;;;5047748;28;19913;-70
2021/12/20 12:39:07;;;;;;;;;;;9.40;99.90;;;;;;5051820;28;19905;-71
2021/12/20 12:41:42;;;;;;;;;;;10.80;99.90;;;;;;5053618;28;19912;-72
2021/12/20 12:44:18;;;;;;;;;;;10.00;99.90;;;;;;5053710;28;19916;-72
2021/12/20 12:46:45;;;;;;;;;;;9.60;99.90;;;;;;5052630;28;19919;-73
2021/12/20 12:49:24;;;;;;;;;;;10.90;99.90;;;;;;5052879;28;19915;-74
2021/12/20 12:51:49;;;;;;;;;;;11.50;99.90;;;;;;5053038;28;20291;-70
2021/12/20 12:54:33;;;;;;;;;;;12.90;99.90;;;;;;5053230;28;19911;-71
2021/12/20 12:57:10;;;;;;;;;;;13.30;99.90;;;;;;5053194;28;19913;-71
2021/12/20 12:59:55;;;;;;;;;;;13.70;99.90;;;;;;5052938;28;20055;-72
2021/12/20 13:02:25;;;;;;;;;;;13.90;99.90;;;;;;5037565;28;19920;-73
2021/12/20 13:04:51;;;;;;;;;;;12.80;99.90;;;;;;5033157;28;19972;-73
2021/12/20 13:07:17;;;;;;;;;;;12.70;99.90;;;;;;5033073;28;19912;-74
2021/12/20 13:09:44;;;;;;;;;;;13.40;99.90;;;;;;5032491;28;19905;-75
2021/12/20 13:12:13;;;;;;;;;;;12.10;99.90;;;;;;5033358;28;19920;-75
2021/12/20 13:15:07;;;;;;;;;;;10.90;99.90;;;;;;5033476;28;20283;-72
2021/12/20 13:17:37;;;;;;;;;;;11.20;99.90;;;;;;5052614;28;19908;-70
2021/12/20 13:20:07;;;;;;;;;;;12.50;99.90;;;;;;5051833;28;19908;-72
2021/12/20 13:22:33;;;;;;;;;;;12.00;99.90;;;;;;5052701;28;19909;-70
2021/12/20 13:24:58;;;;;;;;;;;11.90;99.90;;;;;;5054488;28;20007;-72
2021/12/20 13:27:31;;;;;;;;;;;11.20;99.90;;;;;;5052801;28;19919;-72
2021/12/20 13:29:57;;;;;;;;;;;10.20;99.90;;;;;;5051966;28;19908;-67
2021/12/20 13:32:22;;;;;;;;;;;9.60;99.90;;;;;;5052393;28;19931;-66
2021/12/20 13:34:48;;;;;;;;;;;8.00;99.90;;;;;;5052631;28;19904;-73
2021/12/20 13:37:13;;;;;;;;;;;9.10;99.90;;;;;;5048057;28;19913;-72
2021/12/20 13:39:39;;;;;;;;;;;10.20;99.90;;;;;;5048306;28;19915;-73
2021/12/20 13:42:06;;;;;;;;;;;10.80;99.90;;;;;;5039522;28;19991;-73
2021/12/20 13:44:32;;;;;;;;;;;10.80;99.90;;;;;;5040267;28;19934;-73
2021/12/20 13:47:01;;;;;;;;;;;9.70;99.90;;;;;;5049604;28;19913;-74
2021/12/20 13:49:27;;;;;;;;;;;10.10;99.90;;;;;;5047062;28;20536;-73
2021/12/20 13:51:56;;;;;;;;;;;10.70;99.90;;;;;;5050383;28;20000;-73
2021/12/20 13:54:22;;;;;;;;;;;10.90;99.90;;;;;;5050238;28;19915;-73
2021/12/20 13:56:52;;;;;;;;;;;10.90;99.90;;;;;;5049955;28;19991;-73
2021/12/20 13:59:22;;;;;;;;;;;11.10;99.90;;;;;;5041989;28;20425;-74
2021/12/20 14:01:47;;;;;;;;;;;10.30;99.90;;;;;;5039184;28;20385;-73
2021/12/20 14:04:24;;;;;;;;;;;11.90;99.90;;;;;;5023053;28;19913;-73
2021/12/20 14:06:50;;;;;;;;;;;10.50;99.90;;;;;;5040287;28;19963;-73
2021/12/20 14:09:24;;;;;;;;;;;10.10;99.90;;;;;;5022379;28;19952;-73
2021/12/20 14:12:25;;;;;;;;;;;9.20;99.90;;;;;;5041406;28;20010;-73
2021/12/20 14:14:54;;;;;;;;;;;11.00;99.90;;;;;;5020931;22;19963;-77
2021/12/20 14:17:20;;;;;;;;;;;;;;;;;;5039985;28;19960;-77
2021/12/20 14:19:55;;;;;;;;;;;9.10;99.90;;;;;;5021078;28;19932;-77
2021/12/20 14:22:21;;;;;;;;;;;9.80;99.90;;;;;;5042501;28;19991;-77
2021/12/20 14:24:46;;;;;;;;;;;8.90;99.90;;;;;;5040428;28;20063;-77
2021/12/20 14:27:14;;;;;;;;;;;10.50;99.90;;;;;;5041306;28;20285;-78
2021/12/20 14:29:39;;;;;;;;;;;9.90;99.90;;;;;;5045157;28;19893;-77
2021/12/20 14:32:07;;;;;;;;;;;9.40;99.90;;;;;;5063505;28;19901;-76
2021/12/20 14:34:38;;;;;;;;;;;9.60;99.90;;;;;;5047509;28;19916;-77
2021/12/20 14:37:08;;;;;;;;;;;9.10;99.90;;;;;;5042275;28;19967;-77
2021/12/20 14:39:43;;;;;;;;;;;7.80;99.90;;;;;;5040405;28;19916;-77
2021/12/20 14:42:09;;;;;;;;;;;8.60;99.90;;;;;;5020106;28;19909;-77
2021/12/20 14:44:44;;;;;;;;;;;6.70;99.90;;;;;;5041109;28;20324;-79
2021/12/20 14:49:44;;;;;;;;;;;6.30;99.90;;;;;;5042000;28;20394;-77
2021/12/20 14:52:14;;;;;;;;;;;7.70;99.90;;;;;;4993311;28;19910;-77